createdAt,value
2022-12-08T00:01:16.342Z,0.82
2022-12-08T00:03:43.286Z,0.86
2022-12-08T00:06:34.725Z,0.87
2022-12-08T00:09:19.827Z,0.83
2022-12-08T00:11:46.352Z,0.82
2022-12-08T00:14:12.925Z,0.78
2022-12-08T00:16:39.593Z,0.76
2022-12-08T00:19:06.147Z,0.76
2022-12-08T00:21:32.795Z,0.74
2022-12-08T00:23:59.564Z,0.76
2022-12-08T00:26:26.160Z,0.78
2022-12-08T00:28:52.674Z,0.79
2022-12-08T00:31:19.274Z,0.79
2022-12-08T00:33:45.810Z,0.79
2022-12-08T00:36:13.466Z,0.79
2022-12-08T00:38:40.726Z,0.81
2022-12-08T00:41:09.202Z,0.80
2022-12-08T00:43:35.680Z,0.79
2022-12-08T00:46:02.229Z,0.79
2022-12-08T00:48:28.875Z,0.79
2022-12-08T00:50:55.364Z,0.81
2022-12-08T00:53:21.907Z,0.81
2022-12-08T00:55:48.376Z,0.81
2022-12-08T00:58:14.886Z,0.82
2022-12-08T01:00:42.030Z,0.83
2022-12-08T01:03:11.883Z,0.84
2022-12-08T01:05:38.563Z,0.88
2022-12-08T01:08:05.951Z,0.87
2022-12-08T01:10:34.852Z,0.90
2022-12-08T01:13:01.346Z,0.88
2022-12-08T01:15:27.827Z,0.88
2022-12-08T01:17:54.349Z,0.84
2022-12-08T01:20:20.858Z,0.85
2022-12-08T01:22:47.489Z,0.87
2022-12-08T01:25:13.969Z,0.90
2022-12-08T01:27:40.487Z,0.93
2022-12-08T01:30:07.587Z,0.91
2022-12-08T01:32:34.201Z,0.88
2022-12-08T01:35:01.764Z,0.87
2022-12-08T01:37:29.467Z,0.90
2022-12-08T01:39:55.970Z,0.91
2022-12-08T01:42:23.043Z,0.91
2022-12-08T01:44:53.042Z,0.96
2022-12-08T01:47:19.621Z,0.96
2022-12-08T01:49:46.650Z,0.94
2022-12-08T01:52:18.283Z,0.92
2022-12-08T01:54:49.815Z,0.89
2022-12-08T01:57:36.815Z,0.87
2022-12-08T02:00:06.585Z,0.86
2022-12-08T02:02:38.251Z,0.84
2022-12-08T02:05:06.430Z,0.82
2022-12-08T02:07:33.412Z,0.82
2022-12-08T02:10:00.787Z,0.86
2022-12-08T02:12:27.504Z,0.86
2022-12-08T02:14:54.067Z,0.86
2022-12-08T02:17:35.079Z,0.88
2022-12-08T02:20:01.845Z,0.89
2022-12-08T02:22:40.617Z,0.87
2022-12-08T02:25:13.527Z,0.89
2022-12-08T02:27:41.585Z,0.89
2022-12-08T02:30:18.665Z,0.91
2022-12-08T02:33:03.908Z,0.94
2022-12-08T02:35:48.490Z,0.93
2022-12-08T02:38:33.501Z,0.90
2022-12-08T02:41:00.025Z,0.90
2022-12-08T02:43:29.566Z,0.89
2022-12-08T02:46:00.653Z,0.89
2022-12-08T02:48:30.579Z,0.92
2022-12-08T02:50:57.080Z,0.94
2022-12-08T02:53:23.590Z,0.92
2022-12-08T02:55:53.276Z,0.90
2022-12-08T02:58:19.756Z,0.90
2022-12-08T03:00:46.215Z,0.87
2022-12-08T03:03:26.455Z,0.91
2022-12-08T03:06:02.174Z,0.93
2022-12-08T03:08:34.547Z,0.93
2022-12-08T03:11:09.303Z,0.94
2022-12-08T03:13:42.123Z,0.94
2022-12-08T03:16:09.965Z,0.91
2022-12-08T03:18:38.633Z,0.89
2022-12-08T03:21:06.242Z,0.93
2022-12-08T03:23:33.382Z,0.89
2022-12-08T03:26:09.606Z,0.88
2022-12-08T03:28:36.166Z,0.94
2022-12-08T03:31:03.705Z,0.97
2022-12-08T03:33:35.763Z,1.04
2022-12-08T03:36:04.638Z,0.99
2022-12-08T03:38:38.802Z,0.92
2022-12-08T03:41:20.397Z,0.91
2022-12-08T03:43:50.310Z,0.90
2022-12-08T03:46:17.369Z,0.91
2022-12-08T03:48:43.914Z,0.92
2022-12-08T03:51:10.527Z,0.93
2022-12-08T03:53:37.305Z,0.94
2022-12-08T03:56:14.957Z,0.94
2022-12-08T03:58:41.865Z,0.94
2022-12-08T04:01:08.465Z,0.92
2022-12-08T04:03:34.976Z,0.90
2022-12-08T04:06:01.633Z,0.87
2022-12-08T04:08:28.337Z,0.84
2022-12-08T04:10:54.867Z,0.84
2022-12-08T04:13:21.630Z,0.86
2022-12-08T04:15:48.728Z,0.87
2022-12-08T04:18:16.079Z,0.87
2022-12-08T04:20:43.448Z,0.89
2022-12-08T04:23:12.080Z,0.92
2022-12-08T04:25:39.326Z,0.89
2022-12-08T04:28:06.300Z,0.90
2022-12-08T04:30:33.131Z,0.87
2022-12-08T04:32:59.813Z,0.90
2022-12-08T04:35:26.318Z,0.91
2022-12-08T04:37:52.863Z,0.88
2022-12-08T04:40:19.463Z,0.86
2022-12-08T04:42:46.160Z,0.84
2022-12-08T04:45:12.682Z,0.84
2022-12-08T04:47:39.210Z,0.89
2022-12-08T04:50:06.574Z,0.91
2022-12-08T04:52:33.196Z,0.94
2022-12-08T04:54:59.667Z,0.94
2022-12-08T04:57:26.315Z,0.96
2022-12-08T04:59:53.101Z,0.93
2022-12-08T05:02:19.747Z,0.94
2022-12-08T05:04:46.536Z,0.92
2022-12-08T05:07:13.056Z,0.93
2022-12-08T05:09:39.577Z,0.99
2022-12-08T05:12:06.125Z,1.03
2022-12-08T05:14:32.663Z,1.04
2022-12-08T05:16:59.181Z,0.96
2022-12-08T05:19:25.746Z,0.94
2022-12-08T05:21:52.231Z,0.92
2022-12-08T05:24:18.753Z,0.90
2022-12-08T05:26:45.245Z,0.93
2022-12-08T05:29:11.766Z,0.96
2022-12-08T05:31:38.341Z,0.96
2022-12-08T05:34:04.927Z,1.02
2022-12-08T05:36:31.438Z,0.98
2022-12-08T05:38:58.187Z,0.93
2022-12-08T05:41:25.088Z,0.96
2022-12-08T05:43:51.611Z,0.97
2022-12-08T05:46:18.334Z,0.95
2022-12-08T05:48:44.863Z,0.91
2022-12-08T05:51:19.854Z,0.94
2022-12-08T05:53:47.079Z,0.97
2022-12-08T05:56:13.583Z,0.97
2022-12-08T05:58:40.119Z,0.95
2022-12-08T06:01:07.058Z,0.93
2022-12-08T06:03:33.738Z,0.94
2022-12-08T06:06:00.271Z,0.94
2022-12-08T06:08:26.874Z,0.95
2022-12-08T06:10:53.374Z,0.92
2022-12-08T06:13:19.867Z,0.92
2022-12-08T06:15:46.384Z,0.93
2022-12-08T06:18:12.925Z,0.93
2022-12-08T06:20:39.535Z,0.94
2022-12-08T06:23:06.050Z,0.92
2022-12-08T06:25:32.584Z,0.91
2022-12-08T06:27:59.123Z,0.89
2022-12-08T06:30:26.153Z,0.87
2022-12-08T06:32:52.631Z,0.90
2022-12-08T06:35:19.299Z,0.89
2022-12-08T06:37:45.765Z,0.89
2022-12-08T06:40:12.457Z,0.91
2022-12-08T06:42:45.167Z,0.89
2022-12-08T06:45:13.318Z,0.88
2022-12-08T06:47:39.915Z,0.90
2022-12-08T06:50:10.136Z,0.95
2022-12-08T06:52:45.627Z,0.93
2022-12-08T06:55:35.297Z,0.95
2022-12-08T06:58:02.651Z,0.95
2022-12-08T07:00:29.242Z,0.94
2022-12-08T07:02:55.846Z,0.94
2022-12-08T07:05:22.374Z,0.95
2022-12-08T07:07:48.912Z,1.00
2022-12-08T07:10:15.514Z,0.98
2022-12-08T07:12:42.055Z,0.98
2022-12-08T07:15:08.817Z,1.00
2022-12-08T07:17:35.313Z,0.98
2022-12-08T07:20:02.121Z,1.02
2022-12-08T07:22:28.911Z,0.98
2022-12-08T07:24:55.418Z,1.01
2022-12-08T07:27:21.963Z,1.05
2022-12-08T07:29:48.474Z,1.09
2022-12-08T07:32:14.992Z,1.10
2022-12-08T07:34:41.539Z,1.05
2022-12-08T07:37:08.046Z,1.03
2022-12-08T07:39:34.528Z,1.04
2022-12-08T07:42:01.032Z,1.07
2022-12-08T07:44:27.575Z,1.10
2022-12-08T07:46:54.086Z,1.12
2022-12-08T07:49:20.638Z,1.11
2022-12-08T07:51:47.149Z,1.08
2022-12-08T07:54:13.676Z,1.14
2022-12-08T07:56:40.197Z,1.13
2022-12-08T07:59:06.709Z,1.13
2022-12-08T08:01:34.313Z,1.13
2022-12-08T08:04:02.044Z,1.10
2022-12-08T08:06:28.620Z,1.17
2022-12-08T08:08:55.208Z,1.20
2022-12-08T08:11:22.073Z,1.19
2022-12-08T08:13:49.233Z,1.24
2022-12-08T08:16:15.883Z,1.25
2022-12-08T08:18:43.562Z,1.18
2022-12-08T08:21:43.094Z,1.26
2022-12-08T08:23:56.603Z,1.23
2022-12-08T08:26:23.121Z,1.27
2022-12-08T08:28:50.195Z,1.18
2022-12-08T08:31:16.708Z,1.26
2022-12-08T08:33:43.279Z,1.32
2022-12-08T08:36:10.207Z,1.31
2022-12-08T08:38:40.095Z,1.33
2022-12-08T08:41:10.335Z,1.41
2022-12-08T08:43:38.591Z,1.40
2022-12-08T08:46:06.396Z,1.28
2022-12-08T08:48:33.241Z,1.27
2022-12-08T08:51:07.214Z,1.38
2022-12-08T08:53:33.834Z,1.29
2022-12-08T08:56:02.664Z,1.27
2022-12-08T08:58:29.638Z,1.25
2022-12-08T09:00:56.500Z,1.26
2022-12-08T09:03:23.040Z,1.32
2022-12-08T09:05:50.726Z,1.29
2022-12-08T09:08:17.729Z,1.35
2022-12-08T09:10:44.667Z,1.38
2022-12-08T09:13:11.237Z,1.44
2022-12-08T09:15:37.808Z,1.49
2022-12-08T09:18:06.790Z,1.55
2022-12-08T09:20:33.964Z,1.58
2022-12-08T09:23:00.601Z,1.59
2022-12-08T09:25:27.944Z,1.48
2022-12-08T09:27:54.610Z,1.45
2022-12-08T09:30:21.165Z,1.42
2022-12-08T09:32:47.674Z,1.48
2022-12-08T09:35:14.262Z,1.55
2022-12-08T09:37:40.804Z,1.49
2022-12-08T09:40:07.989Z,1.43
2022-12-08T09:42:37.836Z,1.53
2022-12-08T09:45:15.114Z,1.55
2022-12-08T09:47:58.601Z,1.58
2022-12-08T09:50:35.476Z,1.63
2022-12-08T09:53:21.370Z,1.74
2022-12-08T09:55:48.104Z,1.84
2022-12-08T09:58:37.554Z,1.76
2022-12-08T10:01:04.197Z,1.70
2022-12-08T10:03:30.951Z,1.84
2022-12-08T10:06:12.862Z,1.82
2022-12-08T10:08:47.861Z,1.75
2022-12-08T10:11:18.068Z,1.83
2022-12-08T10:14:11.924Z,1.81
2022-12-08T10:16:42.422Z,1.73
2022-12-08T10:19:21.344Z,1.66
2022-12-08T10:21:48.555Z,1.77
2022-12-08T10:24:37.321Z,1.78
2022-12-08T10:27:05.600Z,1.76
2022-12-08T10:29:32.111Z,1.73
2022-12-08T10:31:59.712Z,1.74
2022-12-08T10:34:26.528Z,1.81
2022-12-08T10:36:54.420Z,1.85
2022-12-08T10:39:29.461Z,1.82
2022-12-08T10:42:02.995Z,1.82
2022-12-08T10:44:29.645Z,1.83
2022-12-08T10:46:56.308Z,1.83
2022-12-08T10:49:29.486Z,1.98
2022-12-08T10:51:56.118Z,2.02
2022-12-08T10:54:28.269Z,1.95
2022-12-08T10:56:55.940Z,2.03
2022-12-08T10:59:25.599Z,2.06
2022-12-08T11:01:53.336Z,1.99
2022-12-08T11:04:23.424Z,2.05
2022-12-08T11:06:50.782Z,2.00
2022-12-08T11:09:17.366Z,2.09
2022-12-08T11:11:45.748Z,2.15
2022-12-08T11:14:35.384Z,2.25
2022-12-08T11:17:05.000Z,2.10
2022-12-08T11:19:31.626Z,2.24
2022-12-08T11:21:58.172Z,2.15
2022-12-08T11:24:26.448Z,2.15
2022-12-08T11:26:55.324Z,2.15
2022-12-08T11:29:22.226Z,2.21
2022-12-08T11:31:57.299Z,2.19
2022-12-08T11:34:30.722Z,2.28
2022-12-08T11:36:57.465Z,2.38
2022-12-08T11:39:26.740Z,2.33
2022-12-08T11:41:54.584Z,2.29
2022-12-08T11:44:29.386Z,2.38
2022-12-08T11:46:59.910Z,2.36
2022-12-08T11:49:33.398Z,2.45
2022-12-08T11:52:18.445Z,2.33
2022-12-08T11:54:48.965Z,2.32
2022-12-08T11:57:20.973Z,2.30
2022-12-08T11:59:50.038Z,2.35
2022-12-08T12:02:22.704Z,2.42
2022-12-08T12:05:07.477Z,2.41
2022-12-08T12:07:33.997Z,2.45
2022-12-08T12:10:18.707Z,2.42
2022-12-08T12:12:57.597Z,2.42
2022-12-08T12:15:42.515Z,2.45
2022-12-08T12:18:27.570Z,2.42
2022-12-08T12:20:56.867Z,2.55
2022-12-08T12:23:29.551Z,2.52
2022-12-08T12:25:58.220Z,2.49
2022-12-08T12:28:29.664Z,2.37
2022-12-08T12:31:02.829Z,2.31
2022-12-08T12:33:32.522Z,2.44
2022-12-08T12:36:02.188Z,2.44
2022-12-08T12:39:03.638Z,2.48
2022-12-08T12:41:33.001Z,2.43
2022-12-08T12:44:22.794Z,2.40
2022-12-08T12:46:49.328Z,2.41
2022-12-08T12:49:34.767Z,2.38
2022-12-08T12:52:01.429Z,2.38
2022-12-08T12:54:29.434Z,2.44
2022-12-08T12:57:14.606Z,2.41
2022-12-08T12:59:44.117Z,2.31
2022-12-08T13:02:20.413Z,2.28
2022-12-08T13:04:55.037Z,2.33
2022-12-08T13:07:23.425Z,2.37
2022-12-08T13:09:56.060Z,2.27
2022-12-08T13:12:24.478Z,2.34
2022-12-08T13:14:51.792Z,2.22
2022-12-08T13:17:28.552Z,2.19
2022-12-08T13:19:57.199Z,2.15
2022-12-08T13:22:42.415Z,2.15
2022-12-08T13:25:28.728Z,2.17
2022-12-08T13:28:08.466Z,2.19
2022-12-08T13:30:43.166Z,2.15
2022-12-08T13:33:33.196Z,2.12
2022-12-08T13:36:18.915Z,2.16
2022-12-08T13:38:46.186Z,2.20
2022-12-08T13:41:33.167Z,2.14
2022-12-08T13:45:03.539Z,2.23
2022-12-08T13:47:31.673Z,2.18
2022-12-08T13:58:42.109Z,2.11
2022-12-08T14:01:18.954Z,1.95
2022-12-08T14:04:28.467Z,1.97
2022-12-08T14:06:42.667Z,2.00
2022-12-08T14:09:14.406Z,1.94
2022-12-08T14:11:43.241Z,1.95
2022-12-08T14:14:27.204Z,1.94
2022-12-08T14:17:03.082Z,1.94
2022-12-08T14:19:31.081Z,1.92
2022-12-08T14:21:59.007Z,1.91
2022-12-08T14:24:26.997Z,1.84
2022-12-08T14:26:54.831Z,1.80
2022-12-08T14:29:38.955Z,1.83
2022-12-08T14:32:06.827Z,1.82
2022-12-08T14:34:40.502Z,1.90
2022-12-08T14:37:11.289Z,1.86
2022-12-08T14:39:38.076Z,1.90
2022-12-08T14:42:05.744Z,2.01
2022-12-08T14:44:33.361Z,1.93
2022-12-08T14:47:05.792Z,1.93
2022-12-08T14:49:34.159Z,1.88
2022-12-08T14:52:01.628Z,1.81
2022-12-08T14:54:29.984Z,1.83
2022-12-08T14:56:57.240Z,1.77
2022-12-08T14:59:30.120Z,1.87
2022-12-08T15:02:09.010Z,1.81
2022-12-08T15:04:38.148Z,1.79
2022-12-08T15:07:04.723Z,1.75
2022-12-08T15:09:31.249Z,1.79
2022-12-08T15:12:27.690Z,1.77
2022-12-08T15:15:15.781Z,1.78
2022-12-08T15:17:43.581Z,1.85
2022-12-08T15:20:28.787Z,1.80
2022-12-08T15:22:58.561Z,1.85
2022-12-08T15:25:25.238Z,1.80
2022-12-08T15:27:53.320Z,1.79
2022-12-08T15:30:20.389Z,1.80
2022-12-08T15:32:47.060Z,1.76
2022-12-08T15:35:14.546Z,1.75
2022-12-08T15:37:41.596Z,1.74
2022-12-08T15:40:15.358Z,1.73
2022-12-08T15:42:41.945Z,1.72
2022-12-08T15:45:11.945Z,1.63
2022-12-08T15:47:38.861Z,1.60
2022-12-08T15:50:07.460Z,1.59
2022-12-08T15:52:35.586Z,1.64
2022-12-08T15:55:02.152Z,1.59
2022-12-08T15:58:04.440Z,1.62
2022-12-08T16:00:51.212Z,1.66
2022-12-08T16:09:12.491Z,1.59
2022-12-08T16:12:06.627Z,1.60
2022-12-08T16:15:39.166Z,1.63
2022-12-08T16:17:20.963Z,1.63
2022-12-08T16:19:47.716Z,1.60
2022-12-08T16:25:22.113Z,1.57
2022-12-08T16:28:01.456Z,1.61
2022-12-08T16:30:32.789Z,1.62
2022-12-08T16:32:59.333Z,1.60
2022-12-08T16:35:25.923Z,1.57
2022-12-08T16:37:52.466Z,1.60
2022-12-08T16:40:19.066Z,1.55
2022-12-08T16:42:50.267Z,1.43
2022-12-08T16:45:20.877Z,1.36
2022-12-08T16:47:48.585Z,1.29
2022-12-08T16:50:20.963Z,1.22
2022-12-08T16:52:48.060Z,1.12
2022-12-08T16:55:16.060Z,1.03
2022-12-08T16:57:43.430Z,0.97
2022-12-08T17:00:12.080Z,0.95
2022-12-08T17:02:38.718Z,0.93
2022-12-08T17:05:05.632Z,0.91
2022-12-08T17:07:32.306Z,0.94
2022-12-08T17:09:59.020Z,0.95
2022-12-08T17:12:25.540Z,0.89
2022-12-08T17:14:52.079Z,0.86
2022-12-08T17:17:18.624Z,0.83
2022-12-08T17:19:45.261Z,0.84
2022-12-08T17:22:11.912Z,0.85
2022-12-08T17:24:38.566Z,0.87
2022-12-08T17:27:06.752Z,0.87
2022-12-08T17:29:33.956Z,0.92
2022-12-08T17:32:00.594Z,0.94
2022-12-08T17:34:27.181Z,0.97
2022-12-08T17:36:53.864Z,1.01
2022-12-08T17:39:20.443Z,1.03
2022-12-08T17:41:47.869Z,1.00
2022-12-08T17:44:16.383Z,0.99
2022-12-08T17:46:47.653Z,1.01
2022-12-08T17:49:19.720Z,1.02
2022-12-08T17:51:47.944Z,1.09
2022-12-08T17:54:16.109Z,1.07
2022-12-08T17:56:43.388Z,1.01
2022-12-08T17:59:10.745Z,0.95
2022-12-08T18:01:37.524Z,0.96
2022-12-08T18:04:04.726Z,0.99
2022-12-08T18:06:31.840Z,1.02
2022-12-08T18:08:59.525Z,1.03
2022-12-08T18:11:27.148Z,1.04
2022-12-08T18:14:10.464Z,1.09
2022-12-08T18:16:38.918Z,1.15
2022-12-08T18:19:05.798Z,1.17
2022-12-08T18:21:32.380Z,1.13
2022-12-08T18:23:58.916Z,1.08
2022-12-08T18:26:25.757Z,1.02
2022-12-08T18:28:52.513Z,1.05
2022-12-08T18:31:20.242Z,1.06
2022-12-08T18:33:47.425Z,1.07
2022-12-08T18:36:15.182Z,1.06
2022-12-08T18:38:42.160Z,1.06
2022-12-08T18:41:09.802Z,1.04
2022-12-08T18:43:37.072Z,0.99
2022-12-08T18:46:05.143Z,1.02
2022-12-08T18:48:31.768Z,1.06
2022-12-08T18:50:58.440Z,1.12
2022-12-08T18:53:25.024Z,1.12
2022-12-08T18:55:51.683Z,1.15
2022-12-08T18:58:18.981Z,1.17
2022-12-08T19:00:45.669Z,1.09
2022-12-08T19:03:12.363Z,1.10
2022-12-08T19:05:38.959Z,1.11
2022-12-08T19:08:06.225Z,1.07
2022-12-08T19:10:34.556Z,1.06
2022-12-08T19:13:01.203Z,1.05
2022-12-08T19:15:27.796Z,1.05
2022-12-08T19:17:54.423Z,1.03
2022-12-08T19:20:20.997Z,1.08
2022-12-08T19:22:47.603Z,1.07
2022-12-08T19:25:14.193Z,1.09
2022-12-08T19:27:40.785Z,1.11
2022-12-08T19:30:08.009Z,1.11
2022-12-08T19:32:34.900Z,1.09
2022-12-08T19:35:01.500Z,1.09
2022-12-08T19:37:28.111Z,1.11
2022-12-08T19:40:13.039Z,1.06
2022-12-08T19:42:58.109Z,1.03
2022-12-08T19:45:24.795Z,1.00
2022-12-08T19:47:51.549Z,1.02
2022-12-08T19:50:36.337Z,1.05
2022-12-08T19:53:05.018Z,1.06
2022-12-08T19:55:31.800Z,1.06
2022-12-08T19:57:58.591Z,1.08
2022-12-08T20:00:25.704Z,1.09
2022-12-08T20:02:52.426Z,1.09
2022-12-08T20:05:19.101Z,1.11
2022-12-08T20:07:45.734Z,1.12
2022-12-08T20:10:16.538Z,1.12
2022-12-08T20:12:43.189Z,1.09
2022-12-08T20:15:10.359Z,1.09
2022-12-08T20:17:37.765Z,1.08
2022-12-08T20:20:07.392Z,1.12
2022-12-08T20:22:34.306Z,1.16
2022-12-08T20:25:01.257Z,1.22
2022-12-08T20:27:29.220Z,1.18
2022-12-08T20:29:55.981Z,1.15
2022-12-08T20:32:22.555Z,1.17
2022-12-08T20:34:49.200Z,1.19
2022-12-08T20:37:15.803Z,1.19
2022-12-08T20:39:42.407Z,1.15
2022-12-08T20:42:11.596Z,1.14
2022-12-08T20:44:43.468Z,1.09
2022-12-08T20:47:10.574Z,1.06
2022-12-08T20:49:37.324Z,1.06
2022-12-08T20:52:04.100Z,1.05
2022-12-08T20:54:30.843Z,1.03
2022-12-08T20:56:57.526Z,1.00
2022-12-08T20:59:24.150Z,1.00
2022-12-08T21:01:51.844Z,1.05
2022-12-08T21:04:18.894Z,1.05
2022-12-08T21:06:45.775Z,1.07
2022-12-08T21:09:12.547Z,1.08
2022-12-08T21:11:39.313Z,1.04
2022-12-08T21:14:05.954Z,1.04
2022-12-08T21:16:32.799Z,1.01
2022-12-08T21:18:59.725Z,1.01
2022-12-08T21:21:26.533Z,0.99
2022-12-08T21:23:53.600Z,0.98
2022-12-08T21:26:21.776Z,0.99
2022-12-08T21:28:48.345Z,0.99
2022-12-08T21:31:17.062Z,1.02
2022-12-08T21:33:44.179Z,0.99
2022-12-08T21:36:12.377Z,0.97
2022-12-08T21:38:39.526Z,0.97
2022-12-08T21:41:08.247Z,0.96
2022-12-08T21:43:35.164Z,0.98
2022-12-08T21:46:02.038Z,0.95
2022-12-08T21:48:28.773Z,0.94
2022-12-08T21:50:56.012Z,0.95
2022-12-08T21:53:23.075Z,0.92
2022-12-08T21:55:49.722Z,0.93
2022-12-08T21:58:16.429Z,1.02
2022-12-08T22:00:43.264Z,0.96
2022-12-08T22:03:12.994Z,0.89
2022-12-08T22:05:40.432Z,0.86
2022-12-08T22:08:07.329Z,0.83
2022-12-08T22:10:34.043Z,0.91
2022-12-08T22:13:00.853Z,0.93
2022-12-08T22:15:29.784Z,0.84
2022-12-08T22:17:56.941Z,0.87
2022-12-08T22:20:23.790Z,0.84
2022-12-08T22:22:50.481Z,0.85
2022-12-08T22:25:17.283Z,0.80
2022-12-08T22:27:44.031Z,0.77
2022-12-08T22:30:12.012Z,0.80
2022-12-08T22:32:39.232Z,0.81
2022-12-08T22:35:06.102Z,0.75
2022-12-08T22:37:32.737Z,0.70
2022-12-08T22:39:59.352Z,0.66
2022-12-08T22:42:26.636Z,0.63
2022-12-08T22:44:53.186Z,0.66
2022-12-08T22:47:19.769Z,0.66
2022-12-08T22:49:46.352Z,0.73
2022-12-08T22:52:13.009Z,0.79
2022-12-08T22:54:39.588Z,0.75
2022-12-08T22:57:06.188Z,0.71
2022-12-08T22:59:33.742Z,0.66
2022-12-08T23:02:00.429Z,0.64
2022-12-08T23:04:27.296Z,0.65
2022-12-08T23:06:54.033Z,0.65
2022-12-08T23:09:21.392Z,0.63
2022-12-08T23:11:48.036Z,0.62
2022-12-08T23:14:14.742Z,0.60
2022-12-08T23:16:41.335Z,0.61
2022-12-08T23:19:08.176Z,0.64
2022-12-08T23:21:34.829Z,0.64
2022-12-08T23:24:01.988Z,0.59
2022-12-08T23:26:29.998Z,0.53
2022-12-08T23:28:56.910Z,0.54
2022-12-08T23:31:24.268Z,0.54
2022-12-08T23:33:51.133Z,0.47
2022-12-08T23:36:18.403Z,0.48
2022-12-08T23:38:45.580Z,0.50
2022-12-08T23:41:13.224Z,0.51
2022-12-08T23:43:43.816Z,0.45
2022-12-08T23:46:10.495Z,0.40
2022-12-08T23:48:37.162Z,0.40
2022-12-08T23:51:03.750Z,0.44
2022-12-08T23:53:31.010Z,0.44
2022-12-08T23:56:01.954Z,0.42
2022-12-08T23:58:29.951Z,0.40
